createdAt,value
2024-02-08T00:01:30.860Z,-2.8
2024-02-08T00:04:30.800Z,-2.8
2024-02-08T00:07:30.824Z,-2.8
2024-02-08T00:10:30.793Z,-2.7
2024-02-08T00:13:30.793Z,-2.7
2024-02-08T00:16:30.779Z,-2.7
2024-02-08T00:19:30.790Z,-2.7
2024-02-08T00:22:30.779Z,-2.8
2024-02-08T00:25:30.770Z,-2.9
2024-02-08T00:28:30.814Z,-3
2024-02-08T00:31:30.789Z,-3
2024-02-08T00:34:30.863Z,-3.1
2024-02-08T00:37:30.790Z,-3.1
2024-02-08T00:40:30.834Z,-3
2024-02-08T00:43:30.824Z,-3
2024-02-08T00:46:30.805Z,-2.9
2024-02-08T00:49:30.817Z,-2.8
2024-02-08T00:52:30.815Z,-2.8
2024-02-08T00:55:30.790Z,-2.7
2024-02-08T00:58:30.833Z,-2.6
2024-02-08T01:01:30.832Z,-2.6
2024-02-08T01:04:30.835Z,-2.5
2024-02-08T01:07:30.840Z,-2.5
2024-02-08T01:10:30.850Z,-2.5
2024-02-08T01:13:30.851Z,-2.5
2024-02-08T01:16:30.828Z,-2.4
2024-02-08T01:19:30.834Z,-2.4
2024-02-08T01:22:30.925Z,-2.4
2024-02-08T01:25:30.882Z,-2.4
2024-02-08T01:28:30.905Z,-2.4
2024-02-08T01:31:30.868Z,-2.4
2024-02-08T01:34:31.079Z,-2.5
2024-02-08T01:37:30.913Z,-2.4
2024-02-08T01:40:30.916Z,-2.4
2024-02-08T01:43:30.923Z,-2.4
2024-02-08T01:46:30.916Z,-2.5
2024-02-08T01:49:30.943Z,-2.5
2024-02-08T01:52:30.962Z,-2.5
2024-02-08T01:55:30.999Z,-2.4
2024-02-08T01:58:30.946Z,-2.4
2024-02-08T02:01:30.962Z,-2.4
2024-02-08T02:04:30.944Z,-2.4
2024-02-08T02:07:30.941Z,-2.5
2024-02-08T02:10:30.992Z,-2.5
2024-02-08T02:13:30.990Z,-2.6
2024-02-08T02:16:30.998Z,-2.7
2024-02-08T02:19:30.991Z,-2.6
2024-02-08T02:22:31.012Z,-2.5
2024-02-08T02:25:30.997Z,-2.4
2024-02-08T02:28:31.037Z,-2.3
2024-02-08T02:31:31.056Z,-2.3
2024-02-08T02:34:31.035Z,-2.3
2024-02-08T02:37:31.044Z,-2.2
2024-02-08T02:40:31.067Z,-2.2
2024-02-08T02:43:31.093Z,-2.2
2024-02-08T02:46:31.095Z,-2.2
2024-02-08T02:49:31.111Z,-2.2
2024-02-08T02:52:31.128Z,-2
2024-02-08T02:55:31.110Z,-2
2024-02-08T02:58:31.120Z,-1.9
2024-02-08T03:01:31.168Z,-1.9
2024-02-08T03:04:31.109Z,-1.9
2024-02-08T03:07:31.156Z,-1.9
2024-02-08T03:10:31.178Z,-1.9
2024-02-08T03:13:31.163Z,-1.9
2024-02-08T03:16:31.171Z,-1.9
2024-02-08T03:19:31.232Z,-1.8
2024-02-08T03:22:31.182Z,-1.8
2024-02-08T03:25:31.168Z,-1.8
2024-02-08T03:28:31.207Z,-1.8
2024-02-08T03:31:31.200Z,-1.8
2024-02-08T03:34:31.939Z,-1.7
2024-02-08T03:37:31.245Z,-1.6
2024-02-08T03:40:31.208Z,-1.5
2024-02-08T03:43:31.419Z,-1.6
2024-02-08T03:46:31.243Z,-1.6
2024-02-08T03:49:31.233Z,-1.6
2024-02-08T03:52:31.272Z,-1.6
2024-02-08T03:55:31.221Z,-1.6
2024-02-08T03:58:31.328Z,-1.5
2024-02-08T04:01:31.338Z,-1.5
2024-02-08T04:04:31.223Z,-1.5
2024-02-08T04:07:31.233Z,-1.4
2024-02-08T04:10:31.350Z,-1.3
2024-02-08T04:13:31.261Z,-1.3
2024-02-08T04:16:31.294Z,-1.3
2024-02-08T04:19:31.242Z,-1.2
2024-02-08T04:22:31.269Z,-1.2
2024-02-08T04:25:31.243Z,-1.2
2024-02-08T04:28:31.253Z,-1.2
2024-02-08T04:31:31.264Z,-1.1
2024-02-08T04:34:31.247Z,-1.1
2024-02-08T04:37:31.253Z,-1.1
2024-02-08T04:40:33.351Z,-1.1
2024-02-08T04:43:31.284Z,-1.1
2024-02-08T04:46:31.252Z,-1.1
2024-02-08T04:49:31.288Z,-1.1
2024-02-08T04:52:31.265Z,-1.1
2024-02-08T04:55:31.268Z,-1
2024-02-08T04:58:46.346Z,-1
2024-02-08T05:01:31.259Z,-1
2024-02-08T05:04:31.385Z,-1
2024-02-08T05:07:31.283Z,-1
2024-02-08T05:10:31.332Z,-1
2024-02-08T05:13:31.294Z,-0.9
2024-02-08T05:16:31.266Z,-0.9
2024-02-08T05:19:31.334Z,-0.8
2024-02-08T05:22:31.325Z,-0.8
2024-02-08T05:25:31.283Z,-0.7
2024-02-08T05:28:31.279Z,-0.7
2024-02-08T05:31:31.392Z,-0.7
2024-02-08T05:34:31.291Z,-0.7
2024-02-08T05:37:31.324Z,-0.6
2024-02-08T05:40:31.291Z,-0.6
2024-02-08T05:43:31.298Z,-0.6
2024-02-08T05:46:31.443Z,-0.5
2024-02-08T05:49:31.338Z,-0.5
2024-02-08T05:52:31.347Z,-0.5
2024-02-08T05:55:31.294Z,-0.4
2024-02-08T05:58:31.316Z,-0.4
2024-02-08T06:01:31.424Z,-0.4
2024-02-08T06:04:31.375Z,-0.4
2024-02-08T06:07:31.737Z,-0.3
2024-02-08T06:10:31.353Z,-0.3
2024-02-08T06:13:31.521Z,-0.3
2024-02-08T06:16:31.304Z,-0.4
2024-02-08T06:19:31.324Z,-0.4
2024-02-08T06:22:31.325Z,-0.4
2024-02-08T06:25:31.396Z,-0.3
2024-02-08T06:28:31.317Z,-0.3
2024-02-08T06:31:34.000Z,-0.3
2024-02-08T06:34:31.386Z,-0.3
2024-02-08T06:37:31.626Z,-0.3
2024-02-08T06:40:31.339Z,-0.4
2024-02-08T06:43:31.331Z,-0.4
2024-02-08T06:46:31.393Z,-0.4
2024-02-08T06:49:31.396Z,-0.4
2024-02-08T06:52:31.335Z,-0.4
2024-02-08T06:55:31.357Z,-0.5
2024-02-08T06:58:31.351Z,-0.5
2024-02-08T07:01:31.389Z,-0.5
2024-02-08T07:04:31.416Z,-0.5
2024-02-08T07:07:31.377Z,-0.5
2024-02-08T07:10:31.344Z,-0.4
2024-02-08T07:13:31.427Z,-0.4
2024-02-08T07:16:31.355Z,-0.3
2024-02-08T07:19:31.366Z,-0.3
2024-02-08T07:22:31.448Z,-0.3
2024-02-08T07:25:31.395Z,-0.3
2024-02-08T07:28:31.366Z,-0.2
2024-02-08T07:31:31.389Z,-0.2
2024-02-08T07:34:31.532Z,-0.1
2024-02-08T07:37:31.374Z,-0.1
2024-02-08T07:40:31.390Z,0
2024-02-08T07:43:31.416Z,0
2024-02-08T07:46:31.953Z,0.1
2024-02-08T07:49:31.538Z,0.2
2024-02-08T07:52:31.498Z,0.2
2024-02-08T07:55:31.459Z,0.3
2024-02-08T07:58:31.411Z,0.4
2024-02-08T08:01:31.640Z,0.5
2024-02-08T08:04:31.395Z,0.5
2024-02-08T08:07:31.388Z,0.6
2024-02-08T08:10:31.396Z,0.7
2024-02-08T08:13:31.390Z,0.8
2024-02-08T08:16:31.878Z,0.9
2024-02-08T08:19:31.428Z,1
2024-02-08T08:22:31.429Z,1.2
2024-02-08T08:25:31.665Z,1.2
2024-02-08T08:28:31.978Z,1.3
2024-02-08T08:31:31.417Z,1.4
2024-02-08T08:34:31.533Z,1.5
2024-02-08T08:37:31.457Z,1.6
2024-02-08T08:40:31.492Z,1.6
2024-02-08T08:43:31.429Z,1.7
2024-02-08T08:46:31.443Z,1.7
2024-02-08T08:49:31.495Z,1.7
2024-02-08T08:52:31.480Z,1.7
2024-02-08T08:55:31.449Z,1.7
2024-02-08T08:58:31.512Z,1.8
2024-02-08T09:01:31.689Z,1.7
2024-02-08T09:04:31.474Z,1.8
2024-02-08T09:07:31.521Z,1.8
2024-02-08T09:10:31.449Z,1.8
2024-02-08T09:13:31.482Z,1.9
2024-02-08T09:16:31.471Z,1.9
2024-02-08T09:19:31.489Z,1.9
2024-02-08T09:22:33.468Z,2
2024-02-08T09:25:35.840Z,2
2024-02-08T09:28:31.584Z,2
2024-02-08T09:31:31.507Z,2
2024-02-08T09:34:31.490Z,2
2024-02-08T09:37:31.490Z,2.1
2024-02-08T09:40:31.559Z,2
2024-02-08T09:43:31.594Z,2.1
2024-02-08T09:46:31.489Z,2.2
2024-02-08T09:49:31.523Z,2.3
2024-02-08T09:52:31.506Z,2.3
2024-02-08T09:55:31.505Z,2.3
2024-02-08T09:58:33.577Z,2.4
2024-02-08T10:01:31.554Z,2.5
2024-02-08T10:04:31.561Z,2.4
2024-02-08T10:07:31.498Z,2.4
2024-02-08T10:10:31.522Z,2.5
2024-02-08T10:13:31.777Z,2.5
2024-02-08T10:16:31.899Z,2.6
2024-02-08T10:19:31.572Z,2.7
2024-02-08T10:22:31.568Z,2.8
2024-02-08T10:25:31.636Z,2.9
2024-02-08T10:28:31.574Z,3
2024-02-08T10:31:31.585Z,3.1
2024-02-08T10:34:31.635Z,3
2024-02-08T10:37:31.550Z,3
2024-02-08T10:40:31.855Z,3
2024-02-08T10:43:31.537Z,3
2024-02-08T10:46:31.537Z,2.8
2024-02-08T10:49:31.589Z,2.9
2024-02-08T10:52:31.600Z,2.9
2024-02-08T10:55:31.606Z,2.8
2024-02-08T10:58:31.598Z,2.8
2024-02-08T11:01:31.633Z,2.7
2024-02-08T11:04:31.672Z,2.8
2024-02-08T11:07:31.568Z,2.7
2024-02-08T11:10:31.657Z,2.6
2024-02-08T11:13:31.729Z,2.6
2024-02-08T11:16:31.606Z,2.7
2024-02-08T11:19:31.621Z,2.8
2024-02-08T11:22:31.602Z,2.9
2024-02-08T11:25:31.646Z,2.9
2024-02-08T11:28:31.591Z,2.9
2024-02-08T11:31:31.627Z,3
2024-02-08T11:34:31.639Z,3
2024-02-08T11:37:31.611Z,3
2024-02-08T11:40:31.641Z,3
2024-02-08T11:43:31.640Z,2.9
2024-02-08T11:46:31.656Z,3.1
2024-02-08T11:49:31.695Z,3.3
2024-02-08T11:52:31.691Z,3.1
2024-02-08T11:55:31.744Z,3
2024-02-08T11:58:31.808Z,3.1
2024-02-08T12:01:31.708Z,3
2024-02-08T12:04:31.778Z,2.9
2024-02-08T12:07:31.719Z,2.9
2024-02-08T12:10:31.727Z,3.1
2024-02-08T12:13:31.717Z,3.3
2024-02-08T12:16:31.702Z,3.4
2024-02-08T12:19:32.193Z,3.4
2024-02-08T12:22:32.142Z,2.8
2024-02-08T12:25:31.726Z,2.6
2024-02-08T12:28:31.865Z,2.6
2024-02-08T12:31:31.877Z,2.6
2024-02-08T12:34:31.833Z,2.3
2024-02-08T12:37:31.750Z,2.3
2024-02-08T12:40:31.771Z,2.3
2024-02-08T12:43:31.785Z,2.4
2024-02-08T12:46:31.800Z,2.5
2024-02-08T12:49:31.810Z,2.4
2024-02-08T12:52:31.880Z,2.2
2024-02-08T12:55:31.941Z,2.1
2024-02-08T12:58:31.812Z,2.1
2024-02-08T13:01:32.827Z,2
2024-02-08T13:04:31.864Z,2.1
2024-02-08T13:10:32.401Z,2
2024-02-08T13:13:31.859Z,2.1
2024-02-08T13:16:31.890Z,1.8
2024-02-08T13:19:31.957Z,1.8
2024-02-08T13:22:31.875Z,1.7
2024-02-08T13:25:31.909Z,1.6
2024-02-08T13:28:31.854Z,1.6
2024-02-08T13:31:31.909Z,1.6
2024-02-08T13:34:31.992Z,1.5
2024-02-08T13:37:31.921Z,1.3
2024-02-08T13:40:31.912Z,1.2
2024-02-08T13:43:32.275Z,1.1
2024-02-08T13:46:33.682Z,1.2
2024-02-08T13:49:31.977Z,1.3
2024-02-08T13:52:31.931Z,1.3
2024-02-08T13:55:41.777Z,1.4
2024-02-08T13:58:31.981Z,1.4
2024-02-08T14:01:31.981Z,1.3
2024-02-08T14:04:32.000Z,1.4
2024-02-08T14:07:31.969Z,1.4
2024-02-08T14:10:32.052Z,1.4
2024-02-08T14:13:32.224Z,1.3
2024-02-08T14:16:31.992Z,1.3
2024-02-08T14:19:32.011Z,1.3
2024-02-08T14:22:32.032Z,1.3
2024-02-08T14:25:32.075Z,1.3
2024-02-08T14:28:32.090Z,1.2
2024-02-08T14:31:33.355Z,1.2
2024-02-08T14:34:32.052Z,1.2
2024-02-08T14:37:32.058Z,1.2
2024-02-08T14:40:32.124Z,1.3
2024-02-08T14:43:32.131Z,1.3
2024-02-08T14:46:32.110Z,1.3
2024-02-08T14:49:32.202Z,1.5
2024-02-08T14:52:32.122Z,1.4
2024-02-08T14:55:32.135Z,1.3
2024-02-08T14:58:32.120Z,1.2
2024-02-08T15:01:32.173Z,1.2
2024-02-08T15:04:32.193Z,1.2
2024-02-08T15:07:32.140Z,1.2
2024-02-08T15:10:32.165Z,1.2
2024-02-08T15:13:32.147Z,1.2
2024-02-08T15:16:32.511Z,1.2
2024-02-08T15:19:32.270Z,1.3
2024-02-08T15:22:32.187Z,1.3
2024-02-08T15:25:32.264Z,0.9
2024-02-08T15:28:32.200Z,0.6
2024-02-08T15:31:32.239Z,0.4
2024-02-08T15:34:32.244Z,0.4
2024-02-08T15:37:32.280Z,0.6
2024-02-08T15:40:32.262Z,0.6
2024-02-08T15:43:32.307Z,0.6
2024-02-08T15:46:32.281Z,0.6
2024-02-08T15:49:32.308Z,0.5
2024-02-08T15:52:32.429Z,0.6
2024-02-08T15:55:32.306Z,0.5
2024-02-08T15:58:32.285Z,0.5
2024-02-08T16:01:32.453Z,0.5
2024-02-08T16:04:32.349Z,0.5
2024-02-08T16:07:32.304Z,0.4
2024-02-08T16:10:32.348Z,0.4
2024-02-08T16:13:32.343Z,0.4
2024-02-08T16:16:32.485Z,0.4
2024-02-08T16:19:32.352Z,0.4
2024-02-08T16:22:32.298Z,0.3
2024-02-08T16:25:32.313Z,0.3
2024-02-08T16:28:32.421Z,0.2
2024-02-08T16:31:32.403Z,0.2
2024-02-08T16:34:32.337Z,0.2
2024-02-08T16:37:32.433Z,0.1
2024-02-08T16:40:32.382Z,0.1
2024-02-08T16:43:32.390Z,0
2024-02-08T16:46:32.441Z,-0.1
2024-02-08T16:49:32.356Z,0
2024-02-08T16:52:32.363Z,-0.1
2024-02-08T16:55:32.359Z,-0.1
2024-02-08T16:58:32.363Z,-0.1
2024-02-08T17:01:32.403Z,-0.1
2024-02-08T17:04:32.347Z,-0.1
2024-02-08T17:07:32.347Z,-0.1
2024-02-08T17:10:32.361Z,-0.1
2024-02-08T17:13:36.031Z,-0.1
2024-02-08T17:16:32.413Z,-0.1
2024-02-08T17:19:32.352Z,0
2024-02-08T17:22:32.385Z,0
2024-02-08T17:25:32.380Z,0
2024-02-08T17:28:32.472Z,0
2024-02-08T17:31:32.419Z,0
2024-02-08T17:34:32.417Z,0
2024-02-08T17:37:32.461Z,0.1
2024-02-08T17:40:32.633Z,0.1
2024-02-08T17:43:32.382Z,0.1
2024-02-08T17:46:32.431Z,0
2024-02-08T17:49:32.405Z,0.1
2024-02-08T17:52:32.377Z,0.1
2024-02-08T17:55:32.382Z,0
2024-02-08T17:58:32.438Z,0.1
2024-02-08T18:01:32.412Z,0.1
2024-02-08T18:04:32.519Z,0.1
2024-02-08T18:07:32.442Z,0.1
2024-02-08T18:10:32.471Z,0.1
2024-02-08T18:13:32.394Z,0.1
2024-02-08T18:16:32.417Z,0.1
2024-02-08T18:19:32.467Z,0.1
2024-02-08T18:22:32.693Z,0.1
2024-02-08T18:25:32.656Z,0.1
2024-02-08T18:28:32.456Z,0.1
2024-02-08T18:31:32.434Z,0.1
2024-02-08T18:34:33.279Z,0.1
2024-02-08T18:37:32.434Z,0.1
2024-02-08T18:40:32.455Z,0.1
2024-02-08T18:43:32.514Z,0.1
2024-02-08T18:46:32.445Z,0.1
2024-02-08T18:49:32.438Z,0.1
2024-02-08T18:52:32.448Z,0.1
2024-02-08T18:55:32.451Z,0.1
2024-02-08T18:58:32.433Z,0.1
2024-02-08T19:01:32.505Z,0.1
2024-02-08T19:04:32.523Z,0.1
2024-02-08T19:07:32.516Z,0.1
2024-02-08T19:10:32.439Z,0.1
2024-02-08T19:13:33.196Z,0.1
2024-02-08T19:16:32.477Z,0.1
2024-02-08T19:19:32.472Z,0.2
2024-02-08T19:22:32.428Z,0.1
2024-02-08T19:25:32.458Z,0.1
2024-02-08T19:28:34.642Z,0.2
2024-02-08T19:31:32.461Z,0.1
2024-02-08T19:34:32.467Z,0.1
2024-02-08T19:37:32.454Z,0.1
2024-02-08T19:40:32.481Z,0.1
2024-02-08T19:43:32.518Z,0.2
2024-02-08T19:46:32.502Z,0.2
2024-02-08T19:49:32.474Z,0.2
2024-02-08T19:52:32.466Z,0.2
2024-02-08T19:55:33.623Z,0.1
2024-02-08T19:58:32.493Z,0.2
2024-02-08T20:01:32.508Z,0.2
2024-02-08T20:04:32.492Z,0.2
2024-02-08T20:07:32.486Z,0.1
2024-02-08T20:10:32.495Z,0.1
2024-02-08T20:13:32.454Z,0.1
2024-02-08T20:16:32.613Z,0.1
2024-02-08T20:19:32.502Z,0.1
2024-02-08T20:22:32.466Z,0.2
2024-02-08T20:25:32.478Z,0.1
2024-02-08T20:28:32.665Z,0.2
2024-02-08T20:31:32.489Z,0.2
2024-02-08T20:34:32.499Z,0.2
2024-02-08T20:37:32.493Z,0.1
2024-02-08T20:40:32.549Z,0.2
2024-02-08T20:43:32.548Z,0.1
2024-02-08T20:46:32.524Z,0.2
2024-02-08T20:49:32.500Z,0.2
2024-02-08T20:52:32.479Z,0.2
2024-02-08T20:55:32.577Z,0.2
2024-02-08T20:58:32.492Z,0.2
2024-02-08T21:01:32.514Z,0.2
2024-02-08T21:04:32.503Z,0.2
2024-02-08T21:07:32.542Z,0.2
2024-02-08T21:10:32.640Z,0.2
2024-02-08T21:13:32.537Z,0.2
2024-02-08T21:16:32.551Z,0.2
2024-02-08T21:19:32.579Z,0.2
2024-02-08T21:22:32.593Z,0.2
2024-02-08T21:25:32.557Z,0.2
2024-02-08T21:28:32.509Z,0.2
2024-02-08T21:31:32.547Z,0.2
2024-02-08T21:34:32.560Z,0.2
2024-02-08T21:37:32.614Z,0.2
2024-02-08T21:40:32.535Z,0.2
2024-02-08T21:43:32.600Z,0.2
2024-02-08T21:46:32.581Z,0.2
2024-02-08T21:49:32.543Z,0.2
2024-02-08T21:52:32.557Z,0.2
2024-02-08T21:55:32.586Z,0.2
2024-02-08T21:58:32.604Z,0.3
2024-02-08T22:07:32.581Z,0.2
2024-02-08T22:10:32.606Z,0.2
2024-02-08T22:13:32.588Z,0.2
2024-02-08T22:16:32.649Z,0.2
2024-02-08T22:19:32.584Z,0.3
2024-02-08T22:22:32.676Z,0.3
2024-02-08T22:25:32.603Z,0.3
2024-02-08T22:28:32.622Z,0.3
2024-02-08T22:31:32.588Z,0.3
2024-02-08T22:34:32.642Z,0.3
2024-02-08T22:37:32.627Z,0.3
2024-02-08T22:40:32.616Z,0.3
2024-02-08T22:43:32.620Z,0.3
2024-02-08T22:46:32.609Z,0.3
2024-02-08T22:49:32.650Z,0.3
2024-02-08T22:52:32.661Z,0.3
2024-02-08T22:55:32.665Z,0.3
2024-02-08T22:58:32.635Z,0.3
2024-02-08T23:01:32.635Z,0.3
2024-02-08T23:04:32.655Z,0.3
2024-02-08T23:07:32.669Z,0.3
2024-02-08T23:10:32.684Z,0.3
2024-02-08T23:13:32.664Z,0.3
2024-02-08T23:16:32.683Z,0.4
2024-02-08T23:19:32.672Z,0.3
2024-02-08T23:22:32.694Z,0.3
2024-02-08T23:25:32.640Z,0.3
2024-02-08T23:28:32.635Z,0.3
2024-02-08T23:31:32.727Z,0.3
2024-02-08T23:34:32.677Z,0.3
2024-02-08T23:37:32.653Z,0.3
2024-02-08T23:40:32.686Z,0.3
2024-02-08T23:43:32.659Z,0.3
2024-02-08T23:46:32.683Z,0.3
2024-02-08T23:49:32.691Z,0.4
2024-02-08T23:52:32.745Z,0.3
2024-02-08T23:55:32.769Z,0.3
2024-02-08T23:58:32.696Z,0.4
